sensor_id;sensor_type;location;lat;lon;timestamp;P1;durP1;ratioP1;P2;durP2;ratioP2
8458;SDS011;4266;48.816;9.154;2023-02-01T00:00:34;5.13;;;4.73;;
8458;SDS011;4266;48.816;9.154;2023-02-01T00:03:00;5.93;;;4.60;;
8458;SDS011;4266;48.816;9.154;2023-02-01T00:05:26;5.07;;;4.67;;
8458;SDS011;4266;48.816;9.154;2023-02-01T00:07:52;5.27;;;4.77;;
8458;SDS011;4266;48.816;9.154;2023-02-01T00:10:17;4.83;;;4.43;;
8458;SDS011;4266;48.816;9.154;2023-02-01T00:12:43;5.10;;;4.60;;
8458;SDS011;4266;48.816;9.154;2023-02-01T00:15:09;4.43;;;4.03;;
8458;SDS011;4266;48.816;9.154;2023-02-01T00:17:35;4.20;;;3.90;;
8458;SDS011;4266;48.816;9.154;2023-02-01T00:20:01;4.80;;;4.37;;
8458;SDS011;4266;48.816;9.154;2023-02-01T00:22:27;4.03;;;3.73;;
8458;SDS011;4266;48.816;9.154;2023-02-01T00:27:28;4.10;;;3.80;;
8458;SDS011;4266;48.816;9.154;2023-02-01T00:29:54;4.20;;;3.97;;
8458;SDS011;4266;48.816;9.154;2023-02-01T00:32:20;4.30;;;3.27;;
8458;SDS011;4266;48.816;9.154;2023-02-01T00:34:45;3.87;;;3.57;;
8458;SDS011;4266;48.816;9.154;2023-02-01T00:37:11;4.20;;;3.87;;
8458;SDS011;4266;48.816;9.154;2023-02-01T00:39:37;4.13;;;3.83;;
8458;SDS011;4266;48.816;9.154;2023-02-01T00:42:02;3.97;;;3.70;;
8458;SDS011;4266;48.816;9.154;2023-02-01T00:44:28;4.20;;;3.90;;
8458;SDS011;4266;48.816;9.154;2023-02-01T00:46:54;4.47;;;3.90;;
8458;SDS011;4266;48.816;9.154;2023-02-01T00:49:20;3.83;;;3.53;;
8458;SDS011;4266;48.816;9.154;2023-02-01T00:51:45;3.67;;;3.40;;
8458;SDS011;4266;48.816;9.154;2023-02-01T00:54:12;3.50;;;3.30;;
8458;SDS011;4266;48.816;9.154;2023-02-01T00:56:37;3.73;;;3.43;;
8458;SDS011;4266;48.816;9.154;2023-02-01T00:59:03;4.13;;;3.73;;
8458;SDS011;4266;48.816;9.154;2023-02-01T01:01:29;3.93;;;3.63;;
8458;SDS011;4266;48.816;9.154;2023-02-01T01:03:56;3.90;;;3.60;;
8458;SDS011;4266;48.816;9.154;2023-02-01T01:06:22;3.80;;;3.50;;
8458;SDS011;4266;48.816;9.154;2023-02-01T01:08:47;3.90;;;3.67;;
8458;SDS011;4266;48.816;9.154;2023-02-01T01:11:15;3.87;;;3.57;;
8458;SDS011;4266;48.816;9.154;2023-02-01T01:13:40;3.90;;;3.60;;
8458;SDS011;4266;48.816;9.154;2023-02-01T01:16:06;3.57;;;3.27;;
8458;SDS011;4266;48.816;9.154;2023-02-01T01:18:32;3.67;;;3.40;;
8458;SDS011;4266;48.816;9.154;2023-02-01T01:20:57;4.13;;;3.83;;
8458;SDS011;4266;48.816;9.154;2023-02-01T01:23:23;3.47;;;3.17;;
8458;SDS011;4266;48.816;9.154;2023-02-01T01:25:50;3.63;;;3.17;;
8458;SDS011;4266;48.816;9.154;2023-02-01T01:28:15;3.77;;;3.47;;
8458;SDS011;4266;48.816;9.154;2023-02-01T01:30:41;4.07;;;3.77;;
8458;SDS011;4266;48.816;9.154;2023-02-01T01:33:07;3.37;;;3.17;;
8458;SDS011;4266;48.816;9.154;2023-02-01T01:35:32;3.20;;;3.00;;
8458;SDS011;4266;48.816;9.154;2023-02-01T01:37:59;3.50;;;3.20;;
8458;SDS011;4266;48.816;9.154;2023-02-01T01:40:24;3.43;;;3.20;;
8458;SDS011;4266;48.816;9.154;2023-02-01T01:42:49;3.20;;;3.00;;
8458;SDS011;4266;48.816;9.154;2023-02-01T01:45:25;3.33;;;3.13;;
8458;SDS011;4266;48.816;9.154;2023-02-01T01:47:54;3.07;;;2.90;;
8458;SDS011;4266;48.816;9.154;2023-02-01T01:50:21;3.30;;;3.10;;
8458;SDS011;4266;48.816;9.154;2023-02-01T01:52:46;2.87;;;2.67;;
8458;SDS011;4266;48.816;9.154;2023-02-01T01:55:10;3.00;;;2.80;;
8458;SDS011;4266;48.816;9.154;2023-02-01T01:57:38;3.20;;;3.00;;
8458;SDS011;4266;48.816;9.154;2023-02-01T02:00:05;3.40;;;3.10;;
8458;SDS011;4266;48.816;9.154;2023-02-01T02:02:37;4.03;;;3.00;;
8458;SDS011;4266;48.816;9.154;2023-02-01T02:05:03;3.10;;;2.90;;
8458;SDS011;4266;48.816;9.154;2023-02-01T02:07:30;2.93;;;2.73;;
8458;SDS011;4266;48.816;9.154;2023-02-01T02:09:54;3.20;;;3.00;;
8458;SDS011;4266;48.816;9.154;2023-02-01T02:12:20;2.80;;;2.60;;
8458;SDS011;4266;48.816;9.154;2023-02-01T02:14:46;3.03;;;2.83;;
8458;SDS011;4266;48.816;9.154;2023-02-01T02:17:36;3.10;;;2.90;;
8458;SDS011;4266;48.816;9.154;2023-02-01T02:20:07;3.07;;;2.87;;
8458;SDS011;4266;48.816;9.154;2023-02-01T02:23:03;2.73;;;2.63;;
8458;SDS011;4266;48.816;9.154;2023-02-01T02:25:30;2.77;;;2.67;;
8458;SDS011;4266;48.816;9.154;2023-02-01T02:28:00;4.00;;;2.97;;
8458;SDS011;4266;48.816;9.154;2023-02-01T02:30:44;3.07;;;2.87;;
8458;SDS011;4266;48.816;9.154;2023-02-01T02:33:16;3.10;;;2.90;;
8458;SDS011;4266;48.816;9.154;2023-02-01T02:35:45;4.50;;;3.33;;
8458;SDS011;4266;48.816;9.154;2023-02-01T02:38:13;3.30;;;3.10;;
8458;SDS011;4266;48.816;9.154;2023-02-01T02:40:42;3.20;;;3.00;;
8458;SDS011;4266;48.816;9.154;2023-02-01T02:43:22;4.00;;;3.60;;
8458;SDS011;4266;48.816;9.154;2023-02-01T02:45:55;3.93;;;3.63;;
8458;SDS011;4266;48.816;9.154;2023-02-01T02:48:28;3.50;;;3.30;;
8458;SDS011;4266;48.816;9.154;2023-02-01T02:53:35;3.70;;;3.50;;
8458;SDS011;4266;48.816;9.154;2023-02-01T02:56:08;3.47;;;3.27;;
8458;SDS011;4266;48.816;9.154;2023-02-01T02:58:41;4.10;;;3.80;;
8458;SDS011;4266;48.816;9.154;2023-02-01T03:01:12;4.23;;;3.83;;
8458;SDS011;4266;48.816;9.154;2023-02-01T03:03:44;3.77;;;3.47;;
8458;SDS011;4266;48.816;9.154;2023-02-01T03:06:16;4.07;;;3.77;;
8458;SDS011;4266;48.816;9.154;2023-02-01T03:08:42;4.00;;;3.70;;
8458;SDS011;4266;48.816;9.154;2023-02-01T03:11:09;3.97;;;3.70;;
8458;SDS011;4266;48.816;9.154;2023-02-01T03:13:38;3.87;;;3.60;;
8458;SDS011;4266;48.816;9.154;2023-02-01T03:16:15;3.60;;;3.40;;
8458;SDS011;4266;48.816;9.154;2023-02-01T03:18:42;3.90;;;3.70;;
8458;SDS011;4266;48.816;9.154;2023-02-01T03:21:10;3.83;;;3.53;;
8458;SDS011;4266;48.816;9.154;2023-02-01T03:23:33;3.70;;;3.50;;
8458;SDS011;4266;48.816;9.154;2023-02-01T03:25:59;3.60;;;3.40;;
8458;SDS011;4266;48.816;9.154;2023-02-01T03:28:24;3.90;;;3.60;;
8458;SDS011;4266;48.816;9.154;2023-02-01T03:30:50;3.77;;;3.57;;
8458;SDS011;4266;48.816;9.154;2023-02-01T03:33:17;3.40;;;3.20;;
8458;SDS011;4266;48.816;9.154;2023-02-01T03:35:48;4.07;;;3.77;;
8458;SDS011;4266;48.816;9.154;2023-02-01T03:38:37;3.73;;;3.47;;
8458;SDS011;4266;48.816;9.154;2023-02-01T03:41:17;3.50;;;3.20;;
8458;SDS011;4266;48.816;9.154;2023-02-01T03:46:30;3.50;;;3.20;;
8458;SDS011;4266;48.816;9.154;2023-02-01T03:48:54;3.87;;;3.57;;
8458;SDS011;4266;48.816;9.154;2023-02-01T03:51:20;3.60;;;3.30;;
8458;SDS011;4266;48.816;9.154;2023-02-01T03:53:47;3.40;;;3.20;;
8458;SDS011;4266;48.816;9.154;2023-02-01T03:56:13;3.43;;;3.20;;
8458;SDS011;4266;48.816;9.154;2023-02-01T03:58:39;3.33;;;3.13;;
8458;SDS011;4266;48.816;9.154;2023-02-01T04:01:04;3.07;;;2.87;;
8458;SDS011;4266;48.816;9.154;2023-02-01T04:03:30;3.63;;;3.07;;
8458;SDS011;4266;48.816;9.154;2023-02-01T04:05:56;3.27;;;3.07;;
8458;SDS011;4266;48.816;9.154;2023-02-01T04:08:22;3.23;;;3.03;;
8458;SDS011;4266;48.816;9.154;2023-02-01T04:10:47;3.30;;;3.10;;
8458;SDS011;4266;48.816;9.154;2023-02-01T04:13:13;3.90;;;3.60;;
8458;SDS011;4266;48.816;9.154;2023-02-01T04:15:38;3.33;;;3.13;;
8458;SDS011;4266;48.816;9.154;2023-02-01T04:18:04;3.70;;;3.50;;
8458;SDS011;4266;48.816;9.154;2023-02-01T04:20:30;3.10;;;2.90;;
8458;SDS011;4266;48.816;9.154;2023-02-01T04:22:56;3.07;;;2.97;;
8458;SDS011;4266;48.816;9.154;2023-02-01T04:25:21;2.97;;;2.77;;
8458;SDS011;4266;48.816;9.154;2023-02-01T04:27:47;3.03;;;2.83;;
8458;SDS011;4266;48.816;9.154;2023-02-01T04:30:13;3.27;;;3.07;;
8458;SDS011;4266;48.816;9.154;2023-02-01T04:32:39;3.10;;;2.90;;
8458;SDS011;4266;48.816;9.154;2023-02-01T04:35:05;3.03;;;2.83;;
8458;SDS011;4266;48.816;9.154;2023-02-01T04:37:31;3.43;;;3.20;;
8458;SDS011;4266;48.816;9.154;2023-02-01T04:39:56;3.37;;;3.17;;
8458;SDS011;4266;48.816;9.154;2023-02-01T04:42:22;3.33;;;3.13;;
8458;SDS011;4266;48.816;9.154;2023-02-01T04:44:48;3.07;;;2.87;;
8458;SDS011;4266;48.816;9.154;2023-02-01T04:47:14;3.20;;;2.90;;
8458;SDS011;4266;48.816;9.154;2023-02-01T04:49:39;3.00;;;2.90;;
8458;SDS011;4266;48.816;9.154;2023-02-01T04:52:06;2.73;;;2.63;;
8458;SDS011;4266;48.816;9.154;2023-02-01T04:54:31;2.93;;;2.80;;
8458;SDS011;4266;48.816;9.154;2023-02-01T04:56:58;2.90;;;2.80;;
8458;SDS011;4266;48.816;9.154;2023-02-01T04:59:24;2.83;;;2.47;;
8458;SDS011;4266;48.816;9.154;2023-02-01T05:01:49;3.57;;;2.73;;
8458;SDS011;4266;48.816;9.154;2023-02-01T05:04:15;3.77;;;2.63;;
8458;SDS011;4266;48.816;9.154;2023-02-01T05:06:41;3.90;;;2.80;;
8458;SDS011;4266;48.816;9.154;2023-02-01T05:09:06;2.77;;;2.57;;
8458;SDS011;4266;48.816;9.154;2023-02-01T05:11:32;2.67;;;2.53;;
8458;SDS011;4266;48.816;9.154;2023-02-01T05:14:04;3.30;;;3.10;;
8458;SDS011;4266;48.816;9.154;2023-02-01T05:16:30;2.80;;;2.60;;
8458;SDS011;4266;48.816;9.154;2023-02-01T05:18:56;2.60;;;2.50;;
8458;SDS011;4266;48.816;9.154;2023-02-01T05:21:22;2.70;;;2.60;;
8458;SDS011;4266;48.816;9.154;2023-02-01T05:23:48;2.90;;;2.80;;
8458;SDS011;4266;48.816;9.154;2023-02-01T05:26:20;2.73;;;2.63;;
8458;SDS011;4266;48.816;9.154;2023-02-01T05:28:45;4.27;;;2.83;;
8458;SDS011;4266;48.816;9.154;2023-02-01T05:31:11;2.70;;;2.60;;
8458;SDS011;4266;48.816;9.154;2023-02-01T05:33:37;3.10;;;2.90;;
8458;SDS011;4266;48.816;9.154;2023-02-01T05:36:02;3.00;;;2.80;;
8458;SDS011;4266;48.816;9.154;2023-02-01T05:38:29;2.90;;;2.70;;
8458;SDS011;4266;48.816;9.154;2023-02-01T05:40:55;3.03;;;2.90;;
8458;SDS011;4266;48.816;9.154;2023-02-01T05:43:21;2.83;;;2.63;;
8458;SDS011;4266;48.816;9.154;2023-02-01T05:45:46;3.73;;;2.77;;
8458;SDS011;4266;48.816;9.154;2023-02-01T05:48:12;2.90;;;2.70;;
8458;SDS011;4266;48.816;9.154;2023-02-01T05:50:38;3.23;;;2.90;;
8458;SDS011;4266;48.816;9.154;2023-02-01T05:53:04;2.90;;;2.80;;
8458;SDS011;4266;48.816;9.154;2023-02-01T05:55:29;4.20;;;2.90;;
8458;SDS011;4266;48.816;9.154;2023-02-01T05:57:55;3.30;;;2.90;;
8458;SDS011;4266;48.816;9.154;2023-02-01T06:00:21;2.90;;;2.70;;
8458;SDS011;4266;48.816;9.154;2023-02-01T06:02:48;3.10;;;2.80;;
8458;SDS011;4266;48.816;9.154;2023-02-01T06:05:13;3.13;;;2.93;;
8458;SDS011;4266;48.816;9.154;2023-02-01T06:07:39;2.87;;;2.60;;
8458;SDS011;4266;48.816;9.154;2023-02-01T06:10:05;4.67;;;2.97;;
8458;SDS011;4266;48.816;9.154;2023-02-01T06:12:31;3.03;;;2.60;;
8458;SDS011;4266;48.816;9.154;2023-02-01T06:14:57;5.83;;;3.43;;
8458;SDS011;4266;48.816;9.154;2023-02-01T06:17:23;5.00;;;3.03;;
8458;SDS011;4266;48.816;9.154;2023-02-01T06:19:48;3.30;;;3.10;;
8458;SDS011;4266;48.816;9.154;2023-02-01T06:22:15;5.80;;;3.13;;
8458;SDS011;4266;48.816;9.154;2023-02-01T06:24:40;3.03;;;2.80;;
8458;SDS011;4266;48.816;9.154;2023-02-01T06:27:06;2.63;;;2.47;;
8458;SDS011;4266;48.816;9.154;2023-02-01T06:29:32;3.00;;;2.80;;
8458;SDS011;4266;48.816;9.154;2023-02-01T06:31:58;3.00;;;2.90;;
8458;SDS011;4266;48.816;9.154;2023-02-01T06:34:23;3.40;;;3.10;;
8458;SDS011;4266;48.816;9.154;2023-02-01T06:36:49;3.60;;;3.30;;
8458;SDS011;4266;48.816;9.154;2023-02-01T06:39:15;3.70;;;3.40;;
8458;SDS011;4266;48.816;9.154;2023-02-01T06:41:41;3.43;;;3.13;;
8458;SDS011;4266;48.816;9.154;2023-02-01T06:44:06;3.70;;;3.37;;
8458;SDS011;4266;48.816;9.154;2023-02-01T06:46:32;4.40;;;3.63;;
8458;SDS011;4266;48.816;9.154;2023-02-01T06:48:58;3.70;;;3.40;;
8458;SDS011;4266;48.816;9.154;2023-02-01T06:51:25;3.93;;;3.57;;
8458;SDS011;4266;48.816;9.154;2023-02-01T06:53:50;4.10;;;3.70;;
8458;SDS011;4266;48.816;9.154;2023-02-01T06:56:16;4.13;;;3.80;;
8458;SDS011;4266;48.816;9.154;2023-02-01T06:58:41;7.17;;;3.77;;
8458;SDS011;4266;48.816;9.154;2023-02-01T07:01:08;6.57;;;4.03;;
8458;SDS011;4266;48.816;9.154;2023-02-01T07:03:33;4.50;;;3.93;;
8458;SDS011;4266;48.816;9.154;2023-02-01T07:05:59;5.93;;;4.13;;
8458;SDS011;4266;48.816;9.154;2023-02-01T07:08:26;4.23;;;3.80;;
8458;SDS011;4266;48.816;9.154;2023-02-01T07:10:50;5.67;;;3.90;;
8458;SDS011;4266;48.816;9.154;2023-02-01T07:13:16;4.27;;;3.77;;
8458;SDS011;4266;48.816;9.154;2023-02-01T07:15:41;7.37;;;4.50;;
8458;SDS011;4266;48.816;9.154;2023-02-01T07:18:07;5.53;;;4.07;;
8458;SDS011;4266;48.816;9.154;2023-02-01T07:20:33;4.00;;;3.70;;
8458;SDS011;4266;48.816;9.154;2023-02-01T07:22:58;5.03;;;4.43;;
8458;SDS011;4266;48.816;9.154;2023-02-01T07:25:24;5.80;;;4.53;;
8458;SDS011;4266;48.816;9.154;2023-02-01T07:27:50;5.70;;;3.87;;
8458;SDS011;4266;48.816;9.154;2023-02-01T07:30:16;6.07;;;4.23;;
8458;SDS011;4266;48.816;9.154;2023-02-01T07:32:42;8.30;;;4.20;;
8458;SDS011;4266;48.816;9.154;2023-02-01T07:35:08;6.00;;;4.47;;
8458;SDS011;4266;48.816;9.154;2023-02-01T07:37:34;5.23;;;4.77;;
8458;SDS011;4266;48.816;9.154;2023-02-01T07:40:00;9.17;;;4.90;;
8458;SDS011;4266;48.816;9.154;2023-02-01T07:42:26;4.43;;;3.80;;
8458;SDS011;4266;48.816;9.154;2023-02-01T07:44:52;4.90;;;3.97;;
8458;SDS011;4266;48.816;9.154;2023-02-01T07:47:18;5.50;;;4.70;;
8458;SDS011;4266;48.816;9.154;2023-02-01T07:49:44;7.27;;;4.67;;
8458;SDS011;4266;48.816;9.154;2023-02-01T07:52:10;7.27;;;4.37;;
8458;SDS011;4266;48.816;9.154;2023-02-01T07:54:36;8.10;;;4.70;;
8458;SDS011;4266;48.816;9.154;2023-02-01T07:57:01;8.20;;;4.43;;
8458;SDS011;4266;48.816;9.154;2023-02-01T07:59:27;9.47;;;4.20;;
8458;SDS011;4266;48.816;9.154;2023-02-01T08:01:53;6.93;;;4.10;;
8458;SDS011;4266;48.816;9.154;2023-02-01T08:04:19;6.87;;;4.70;;
8458;SDS011;4266;48.816;9.154;2023-02-01T08:06:45;6.90;;;3.83;;
8458;SDS011;4266;48.816;9.154;2023-02-01T08:09:10;9.07;;;4.50;;
8458;SDS011;4266;48.816;9.154;2023-02-01T08:11:36;8.83;;;4.87;;
8458;SDS011;4266;48.816;9.154;2023-02-01T08:14:02;8.03;;;4.43;;
8458;SDS011;4266;48.816;9.154;2023-02-01T08:16:28;7.57;;;4.30;;
8458;SDS011;4266;48.816;9.154;2023-02-01T08:18:53;8.00;;;4.27;;
8458;SDS011;4266;48.816;9.154;2023-02-01T08:21:21;8.97;;;4.83;;
8458;SDS011;4266;48.816;9.154;2023-02-01T08:23:46;7.03;;;4.30;;
8458;SDS011;4266;48.816;9.154;2023-02-01T08:26:16;9.17;;;4.20;;
8458;SDS011;4266;48.816;9.154;2023-02-01T08:28:41;7.10;;;4.40;;
8458;SDS011;4266;48.816;9.154;2023-02-01T08:31:07;9.83;;;4.83;;
8458;SDS011;4266;48.816;9.154;2023-02-01T08:33:32;6.97;;;4.47;;
8458;SDS011;4266;48.816;9.154;2023-02-01T08:36:00;9.97;;;3.93;;
8458;SDS011;4266;48.816;9.154;2023-02-01T08:38:24;10.47;;;4.07;;
8458;SDS011;4266;48.816;9.154;2023-02-01T08:40:50;7.90;;;4.07;;
8458;SDS011;4266;48.816;9.154;2023-02-01T08:43:16;9.90;;;4.00;;
8458;SDS011;4266;48.816;9.154;2023-02-01T08:45:41;9.20;;;4.30;;
8458;SDS011;4266;48.816;9.154;2023-02-01T08:48:07;6.87;;;4.10;;
8458;SDS011;4266;48.816;9.154;2023-02-01T08:50:33;7.30;;;3.80;;
8458;SDS011;4266;48.816;9.154;2023-02-01T08:52:59;6.03;;;4.03;;
8458;SDS011;4266;48.816;9.154;2023-02-01T08:55:24;9.03;;;4.17;;
8458;SDS011;4266;48.816;9.154;2023-02-01T08:57:50;10.37;;;4.20;;
8458;SDS011;4266;48.816;9.154;2023-02-01T09:00:17;9.67;;;3.83;;
8458;SDS011;4266;48.816;9.154;2023-02-01T09:02:42;11.47;;;4.40;;
8458;SDS011;4266;48.816;9.154;2023-02-01T09:05:08;7.80;;;4.00;;
8458;SDS011;4266;48.816;9.154;2023-02-01T09:07:34;4.27;;;3.40;;
8458;SDS011;4266;48.816;9.154;2023-02-01T09:10:00;15.00;;;4.27;;
8458;SDS011;4266;48.816;9.154;2023-02-01T09:12:27;15.97;;;4.50;;
8458;SDS011;4266;48.816;9.154;2023-02-01T09:14:52;8.90;;;3.93;;
8458;SDS011;4266;48.816;9.154;2023-02-01T09:17:19;8.03;;;3.87;;
8458;SDS011;4266;48.816;9.154;2023-02-01T09:19:45;22.80;;;4.53;;
8458;SDS011;4266;48.816;9.154;2023-02-01T09:22:10;12.30;;;3.90;;
8458;SDS011;4266;48.816;9.154;2023-02-01T09:24:36;9.33;;;4.20;;
8458;SDS011;4266;48.816;9.154;2023-02-01T09:27:02;8.77;;;4.47;;
8458;SDS011;4266;48.816;9.154;2023-02-01T09:29:28;13.87;;;5.00;;
8458;SDS011;4266;48.816;9.154;2023-02-01T09:31:53;8.73;;;4.77;;
8458;SDS011;4266;48.816;9.154;2023-02-01T09:34:20;11.37;;;3.93;;
8458;SDS011;4266;48.816;9.154;2023-02-01T09:36:46;10.60;;;4.07;;
8458;SDS011;4266;48.816;9.154;2023-02-01T09:39:12;8.73;;;4.17;;
8458;SDS011;4266;48.816;9.154;2023-02-01T09:44:40;11.37;;;5.10;;
8458;SDS011;4266;48.816;9.154;2023-02-01T09:47:03;7.97;;;4.23;;
8458;SDS011;4266;48.816;9.154;2023-02-01T09:49:30;12.30;;;4.30;;
8458;SDS011;4266;48.816;9.154;2023-02-01T09:51:54;16.20;;;4.60;;
8458;SDS011;4266;48.816;9.154;2023-02-01T09:54:22;8.27;;;4.83;;
8458;SDS011;4266;48.816;9.154;2023-02-01T09:56:47;7.53;;;3.87;;
8458;SDS011;4266;48.816;9.154;2023-02-01T10:01:51;11.87;;;4.80;;
8458;SDS011;4266;48.816;9.154;2023-02-01T10:04:17;7.50;;;4.20;;
8458;SDS011;4266;48.816;9.154;2023-02-01T10:09:42;8.37;;;4.03;;
8458;SDS011;4266;48.816;9.154;2023-02-01T10:12:23;8.37;;;4.10;;
8458;SDS011;4266;48.816;9.154;2023-02-01T10:15:09;11.00;;;4.20;;
8458;SDS011;4266;48.816;9.154;2023-02-01T10:17:38;12.17;;;4.27;;
8458;SDS011;4266;48.816;9.154;2023-02-01T10:23:29;9.73;;;4.30;;
8458;SDS011;4266;48.816;9.154;2023-02-01T10:25:55;6.60;;;3.60;;
8458;SDS011;4266;48.816;9.154;2023-02-01T10:28:20;9.80;;;4.07;;
8458;SDS011;4266;48.816;9.154;2023-02-01T10:30:46;11.23;;;3.77;;
8458;SDS011;4266;48.816;9.154;2023-02-01T10:33:17;27.77;;;4.77;;
8458;SDS011;4266;48.816;9.154;2023-02-01T10:35:41;9.80;;;4.73;;
8458;SDS011;4266;48.816;9.154;2023-02-01T10:38:12;16.80;;;4.37;;
8458;SDS011;4266;48.816;9.154;2023-02-01T10:40:34;11.23;;;3.70;;
8458;SDS011;4266;48.816;9.154;2023-02-01T10:43:00;10.80;;;4.27;;
8458;SDS011;4266;48.816;9.154;2023-02-01T10:45:27;15.93;;;4.13;;
8458;SDS011;4266;48.816;9.154;2023-02-01T10:47:52;15.53;;;4.30;;
8458;SDS011;4266;48.816;9.154;2023-02-01T10:52:56;11.73;;;3.77;;
8458;SDS011;4266;48.816;9.154;2023-02-01T10:55:25;13.63;;;4.00;;
8458;SDS011;4266;48.816;9.154;2023-02-01T10:58:00;13.27;;;4.17;;
8458;SDS011;4266;48.816;9.154;2023-02-01T11:00:26;8.83;;;4.17;;
8458;SDS011;4266;48.816;9.154;2023-02-01T11:02:51;9.97;;;3.80;;
8458;SDS011;4266;48.816;9.154;2023-02-01T11:05:17;12.23;;;4.10;;
8458;SDS011;4266;48.816;9.154;2023-02-01T11:07:46;13.60;;;3.50;;
8458;SDS011;4266;48.816;9.154;2023-02-01T11:12:52;10.57;;;3.97;;
8458;SDS011;4266;48.816;9.154;2023-02-01T11:15:21;15.33;;;3.90;;
8458;SDS011;4266;48.816;9.154;2023-02-01T11:17:47;12.77;;;3.87;;
8458;SDS011;4266;48.816;9.154;2023-02-01T11:20:16;10.83;;;3.77;;
8458;SDS011;4266;48.816;9.154;2023-02-01T11:22:48;11.83;;;3.90;;
8458;SDS011;4266;48.816;9.154;2023-02-01T11:25:15;7.90;;;3.90;;
8458;SDS011;4266;48.816;9.154;2023-02-01T11:27:40;11.43;;;3.93;;
8458;SDS011;4266;48.816;9.154;2023-02-01T11:30:06;12.33;;;4.20;;
8458;SDS011;4266;48.816;9.154;2023-02-01T11:32:34;9.30;;;3.80;;
8458;SDS011;4266;48.816;9.154;2023-02-01T11:35:02;10.63;;;4.33;;
8458;SDS011;4266;48.816;9.154;2023-02-01T11:37:29;11.67;;;4.53;;
8458;SDS011;4266;48.816;9.154;2023-02-01T11:39:55;9.03;;;4.30;;
8458;SDS011;4266;48.816;9.154;2023-02-01T11:42:20;6.53;;;3.40;;
8458;SDS011;4266;48.816;9.154;2023-02-01T11:44:46;8.87;;;4.00;;
8458;SDS011;4266;48.816;9.154;2023-02-01T11:47:18;11.23;;;3.93;;
8458;SDS011;4266;48.816;9.154;2023-02-01T11:49:43;10.43;;;3.77;;
8458;SDS011;4266;48.816;9.154;2023-02-01T11:52:12;11.37;;;3.60;;
8458;SDS011;4266;48.816;9.154;2023-02-01T11:58:20;7.13;;;3.43;;
8458;SDS011;4266;48.816;9.154;2023-02-01T11:59:57;10.23;;;3.67;;
8458;SDS011;4266;48.816;9.154;2023-02-01T12:02:49;11.20;;;3.60;;
8458;SDS011;4266;48.816;9.154;2023-02-01T12:05:27;10.93;;;3.73;;
8458;SDS011;4266;48.816;9.154;2023-02-01T12:08:01;9.33;;;3.57;;
8458;SDS011;4266;48.816;9.154;2023-02-01T12:16:29;4.70;;;2.83;;
8458;SDS011;4266;48.816;9.154;2023-02-01T12:19:02;8.23;;;3.80;;
8458;SDS011;4266;48.816;9.154;2023-02-01T12:24:36;9.00;;;3.37;;
8458;SDS011;4266;48.816;9.154;2023-02-01T12:29:47;10.17;;;3.47;;
8458;SDS011;4266;48.816;9.154;2023-02-01T12:32:37;6.77;;;3.40;;
8458;SDS011;4266;48.816;9.154;2023-02-01T12:37:43;10.10;;;3.40;;
8458;SDS011;4266;48.816;9.154;2023-02-01T12:40:57;11.70;;;3.60;;
8458;SDS011;4266;48.816;9.154;2023-02-01T12:43:35;12.63;;;4.00;;
8458;SDS011;4266;48.816;9.154;2023-02-01T12:46:04;7.17;;;3.23;;
8458;SDS011;4266;48.816;9.154;2023-02-01T12:48:32;10.90;;;4.07;;
8458;SDS011;4266;48.816;9.154;2023-02-01T12:50:58;10.60;;;4.20;;
8458;SDS011;4266;48.816;9.154;2023-02-01T12:53:25;7.80;;;3.63;;
8458;SDS011;4266;48.816;9.154;2023-02-01T12:55:51;11.43;;;4.10;;
8458;SDS011;4266;48.816;9.154;2023-02-01T12:58:17;13.90;;;5.00;;
8458;SDS011;4266;48.816;9.154;2023-02-01T13:00:48;10.53;;;4.90;;
8458;SDS011;4266;48.816;9.154;2023-02-01T13:03:15;13.40;;;5.13;;
8458;SDS011;4266;48.816;9.154;2023-02-01T13:05:44;11.77;;;5.47;;
8458;SDS011;4266;48.816;9.154;2023-02-01T13:08:08;12.70;;;6.13;;
8458;SDS011;4266;48.816;9.154;2023-02-01T13:10:34;17.27;;;5.43;;
8458;SDS011;4266;48.816;9.154;2023-02-01T13:13:03;10.10;;;4.63;;
8458;SDS011;4266;48.816;9.154;2023-02-01T13:15:29;11.20;;;3.93;;
8458;SDS011;4266;48.816;9.154;2023-02-01T13:17:54;6.87;;;3.80;;
8458;SDS011;4266;48.816;9.154;2023-02-01T13:23:15;13.83;;;4.77;;
8458;SDS011;4266;48.816;9.154;2023-02-01T13:25:44;13.93;;;4.20;;
8458;SDS011;4266;48.816;9.154;2023-02-01T13:28:11;13.83;;;4.47;;
8458;SDS011;4266;48.816;9.154;2023-02-01T13:30:45;7.70;;;4.20;;
8458;SDS011;4266;48.816;9.154;2023-02-01T13:36:14;12.67;;;4.10;;
8458;SDS011;4266;48.816;9.154;2023-02-01T13:39:19;6.43;;;3.90;;
8458;SDS011;4266;48.816;9.154;2023-02-01T13:41:29;9.67;;;3.47;;
8458;SDS011;4266;48.816;9.154;2023-02-01T13:43:58;6.47;;;3.77;;
8458;SDS011;4266;48.816;9.154;2023-02-01T13:46:23;10.87;;;4.07;;
8458;SDS011;4266;48.816;9.154;2023-02-01T13:48:53;8.77;;;3.97;;
8458;SDS011;4266;48.816;9.154;2023-02-01T13:51:31;8.60;;;3.60;;
8458;SDS011;4266;48.816;9.154;2023-02-01T13:53:46;7.83;;;3.47;;
8458;SDS011;4266;48.816;9.154;2023-02-01T13:56:15;11.53;;;3.93;;
8458;SDS011;4266;48.816;9.154;2023-02-01T13:58:40;11.50;;;3.80;;
8458;SDS011;4266;48.816;9.154;2023-02-01T14:03:44;12.90;;;3.67;;
8458;SDS011;4266;48.816;9.154;2023-02-01T14:06:16;6.47;;;3.80;;
8458;SDS011;4266;48.816;9.154;2023-02-01T14:08:41;10.77;;;3.83;;
8458;SDS011;4266;48.816;9.154;2023-02-01T14:11:07;12.37;;;3.67;;
8458;SDS011;4266;48.816;9.154;2023-02-01T14:13:35;5.77;;;3.47;;
8458;SDS011;4266;48.816;9.154;2023-02-01T14:18:49;12.13;;;3.97;;
8458;SDS011;4266;48.816;9.154;2023-02-01T14:21:33;11.17;;;3.80;;
8458;SDS011;4266;48.816;9.154;2023-02-01T14:24:01;9.77;;;3.63;;
8458;SDS011;4266;48.816;9.154;2023-02-01T14:26:41;11.37;;;4.20;;
8458;SDS011;4266;48.816;9.154;2023-02-01T14:29:21;12.80;;;4.00;;
8458;SDS011;4266;48.816;9.154;2023-02-01T14:34:50;10.00;;;4.40;;
8458;SDS011;4266;48.816;9.154;2023-02-01T14:37:24;8.93;;;4.43;;
8458;SDS011;4266;48.816;9.154;2023-02-01T14:39:53;7.90;;;3.77;;
8458;SDS011;4266;48.816;9.154;2023-02-01T14:44:57;9.73;;;4.50;;
8458;SDS011;4266;48.816;9.154;2023-02-01T14:47:29;10.30;;;3.90;;
8458;SDS011;4266;48.816;9.154;2023-02-01T14:50:00;10.60;;;4.20;;
8458;SDS011;4266;48.816;9.154;2023-02-01T14:52:30;9.47;;;4.17;;
8458;SDS011;4266;48.816;9.154;2023-02-01T14:54:55;13.63;;;4.43;;
8458;SDS011;4266;48.816;9.154;2023-02-01T14:57:20;11.10;;;4.00;;
8458;SDS011;4266;48.816;9.154;2023-02-01T14:59:46;13.23;;;4.50;;
8458;SDS011;4266;48.816;9.154;2023-02-01T15:02:17;9.70;;;4.53;;
8458;SDS011;4266;48.816;9.154;2023-02-01T15:04:41;10.23;;;4.20;;
8458;SDS011;4266;48.816;9.154;2023-02-01T15:07:07;10.50;;;3.47;;
8458;SDS011;4266;48.816;9.154;2023-02-01T15:09:32;14.33;;;5.00;;
8458;SDS011;4266;48.816;9.154;2023-02-01T15:12:01;10.80;;;4.07;;
8458;SDS011;4266;48.816;9.154;2023-02-01T15:14:29;7.13;;;3.97;;
8458;SDS011;4266;48.816;9.154;2023-02-01T15:16:54;11.60;;;4.27;;
8458;SDS011;4266;48.816;9.154;2023-02-01T15:19:21;10.10;;;4.07;;
8458;SDS011;4266;48.816;9.154;2023-02-01T15:21:48;13.17;;;5.07;;
8458;SDS011;4266;48.816;9.154;2023-02-01T15:24:19;11.87;;;4.23;;
8458;SDS011;4266;48.816;9.154;2023-02-01T15:26:49;11.80;;;4.70;;
8458;SDS011;4266;48.816;9.154;2023-02-01T15:29:14;10.57;;;4.50;;
8458;SDS011;4266;48.816;9.154;2023-02-01T15:31:44;11.82;;;4.65;;
8458;SDS011;4266;48.816;9.154;2023-02-01T15:34:08;7.93;;;4.30;;
8458;SDS011;4266;48.816;9.154;2023-02-01T15:36:34;12.43;;;3.30;;
8458;SDS011;4266;48.816;9.154;2023-02-01T15:41:38;8.53;;;3.80;;
8458;SDS011;4266;48.816;9.154;2023-02-01T15:44:04;8.73;;;4.00;;
8458;SDS011;4266;48.816;9.154;2023-02-01T15:46:31;9.87;;;3.93;;
8458;SDS011;4266;48.816;9.154;2023-02-01T15:48:57;9.00;;;5.13;;
8458;SDS011;4266;48.816;9.154;2023-02-01T15:51:24;9.63;;;3.80;;
8458;SDS011;4266;48.816;9.154;2023-02-01T15:53:56;8.53;;;3.77;;
8458;SDS011;4266;48.816;9.154;2023-02-01T15:56:23;10.00;;;3.80;;
8458;SDS011;4266;48.816;9.154;2023-02-01T15:58:50;7.70;;;3.30;;
8458;SDS011;4266;48.816;9.154;2023-02-01T16:01:16;10.83;;;4.03;;
8458;SDS011;4266;48.816;9.154;2023-02-01T16:03:42;10.53;;;4.17;;
8458;SDS011;4266;48.816;9.154;2023-02-01T16:06:09;10.93;;;3.60;;
8458;SDS011;4266;48.816;9.154;2023-02-01T16:08:34;11.57;;;3.97;;
8458;SDS011;4266;48.816;9.154;2023-02-01T16:11:12;12.43;;;4.17;;
8458;SDS011;4266;48.816;9.154;2023-02-01T16:13:27;9.30;;;3.60;;
8458;SDS011;4266;48.816;9.154;2023-02-01T16:15:53;7.63;;;3.83;;